createdAt,value
2018-04-16T00:01:23.696Z,55.59
2018-04-16T00:04:00.810Z,55.61
2018-04-16T00:06:27.950Z,55.09
2018-04-16T00:08:54.533Z,54.53
2018-04-16T00:11:21.226Z,55.06
2018-04-16T00:13:48.994Z,54.17
2018-04-16T00:16:15.644Z,54.32
2018-04-16T00:18:42.565Z,55.00
2018-04-16T00:21:09.240Z,54.08
2018-04-16T00:23:39.184Z,54.40
2018-04-16T00:26:05.922Z,53.81
2018-04-16T00:28:32.685Z,53.56
2018-04-16T00:30:59.932Z,53.65
2018-04-16T00:33:36.103Z,53.85
2018-04-16T00:36:08.672Z,53.82
2018-04-16T00:38:41.161Z,54.16
2018-04-16T00:41:13.773Z,54.60
2018-04-16T00:43:51.667Z,55.43
2018-04-16T00:46:24.283Z,54.88
2018-04-16T00:48:56.978Z,55.82
2018-04-16T00:51:29.602Z,56.25
2018-04-16T00:54:14.133Z,57.05
2018-04-16T00:56:46.933Z,56.49
2018-04-16T00:59:19.798Z,55.43
2018-04-16T01:04:54.212Z,55.46
2018-04-16T01:07:26.836Z,56.50
2018-04-16T01:10:00.281Z,57.09
2018-04-16T01:12:32.793Z,57.04
2018-04-16T01:15:08.785Z,57.11
2018-04-16T01:17:41.557Z,56.00
2018-04-16T01:20:14.150Z,55.31
2018-04-16T01:22:46.817Z,54.22
2018-04-16T01:25:26.075Z,54.04
2018-04-16T01:27:58.882Z,52.89
2018-04-16T01:30:31.497Z,52.29
2018-04-16T01:33:04.048Z,52.19
2018-04-16T01:35:40.290Z,51.76
2018-04-16T01:38:12.930Z,50.77
2018-04-16T01:40:45.597Z,51.38
2018-04-16T01:43:18.190Z,52.10
2018-04-16T01:45:50.817Z,51.46
2018-04-16T01:48:23.375Z,52.16
2018-04-16T01:50:55.925Z,51.18
2018-04-16T01:53:28.464Z,51.23
2018-04-16T01:56:00.953Z,51.28
2018-04-16T01:58:33.786Z,52.12
2018-04-16T02:01:06.390Z,53.63
2018-04-16T02:03:39.048Z,54.82
2018-04-16T02:06:12.085Z,53.66
2018-04-16T02:08:44.882Z,54.89
2018-04-16T02:11:17.792Z,56.29
2018-04-16T02:13:50.789Z,55.64
2018-04-16T02:16:23.529Z,55.70
2018-04-16T02:18:56.390Z,55.50
2018-04-16T02:21:29.168Z,54.42
2018-04-16T02:24:05.290Z,54.90
2018-04-16T02:26:37.869Z,54.73
2018-04-16T02:29:10.490Z,56.07
2018-04-16T02:31:43.256Z,57.01
2018-04-16T02:34:17.117Z,56.90
2018-04-16T02:36:49.746Z,60.08
2018-04-16T02:39:22.298Z,58.86
2018-04-16T02:41:54.886Z,57.36
2018-04-16T02:44:32.493Z,57.22
2018-04-16T02:47:05.135Z,57.91
2018-04-16T02:49:37.792Z,56.88
2018-04-16T02:52:10.366Z,57.11
2018-04-16T02:54:48.754Z,60.91
2018-04-16T02:57:21.344Z,58.87
2018-04-16T02:59:54.084Z,58.83
2018-04-16T03:02:26.701Z,58.71
2018-04-16T03:05:02.426Z,58.73
2018-04-16T03:07:34.991Z,58.71
2018-04-16T03:10:07.532Z,57.42
2018-04-16T03:12:40.057Z,58.44
2018-04-16T03:15:13.778Z,58.95
2018-04-16T03:17:46.393Z,59.38
2018-04-16T03:20:18.965Z,58.17
2018-04-16T03:25:48.924Z,57.29
2018-04-16T03:28:21.488Z,55.80
2018-04-16T03:30:54.142Z,55.71
2018-04-16T03:33:30.410Z,56.01
2018-04-16T03:36:02.973Z,57.07
2018-04-16T03:38:35.670Z,58.17
2018-04-16T03:41:08.486Z,58.92
2018-04-16T03:43:44.553Z,57.41
2018-04-16T03:46:17.406Z,57.03
2018-04-16T03:51:34.506Z,55.37
2018-04-16T03:54:02.352Z,56.14
2018-04-16T03:56:28.992Z,56.79
2018-04-16T03:58:55.605Z,56.72
2018-04-16T04:01:22.283Z,56.68
2018-04-16T04:03:54.209Z,55.54
2018-04-16T04:06:20.817Z,55.18
2018-04-16T04:08:47.467Z,55.44
2018-04-16T04:11:13.995Z,55.24
2018-04-16T04:13:44.414Z,54.74
2018-04-16T04:16:11.224Z,54.59
2018-04-16T04:18:37.846Z,54.11
2018-04-16T04:21:04.524Z,54.53
2018-04-16T04:23:43.294Z,54.74
2018-04-16T04:26:21.786Z,56.23
2018-04-16T04:29:00.279Z,55.92
2018-04-16T04:31:26.917Z,57.16
2018-04-16T04:33:57.333Z,56.08
2018-04-16T04:36:24.073Z,55.19
2018-04-16T04:38:50.811Z,54.99
2018-04-16T04:41:17.398Z,55.82
2018-04-16T04:43:47.635Z,54.75
2018-04-16T04:46:14.214Z,54.05
2018-04-16T04:48:40.894Z,54.07
2018-04-16T04:51:07.611Z,53.22
2018-04-16T04:53:34.339Z,53.30
2018-04-16T04:56:01.002Z,53.08
2018-04-16T04:58:28.057Z,52.30
2018-04-16T05:00:54.785Z,52.77
2018-04-16T05:03:22.625Z,52.18
2018-04-16T05:05:49.210Z,51.77
2018-04-16T05:08:15.842Z,52.25
2018-04-16T05:10:42.541Z,52.15
2018-04-16T05:13:10.339Z,52.13
2018-04-16T05:15:36.977Z,52.10
2018-04-16T05:18:03.681Z,52.35
2018-04-16T05:20:30.423Z,51.61
2018-04-16T05:23:00.987Z,52.15
2018-04-16T05:25:27.621Z,52.91
2018-04-16T05:27:54.369Z,53.31
2018-04-16T05:30:21.107Z,52.93
2018-04-16T05:32:48.057Z,52.79
2018-04-16T05:35:14.813Z,53.45
2018-04-16T05:37:41.475Z,53.04
2018-04-16T05:40:08.221Z,52.91
2018-04-16T05:42:34.895Z,53.63
2018-04-16T05:45:01.538Z,53.92
2018-04-16T05:47:29.989Z,53.67
2018-04-16T05:49:56.699Z,53.84
2018-04-16T05:52:23.278Z,53.19
2018-04-16T05:54:50.181Z,53.04
2018-04-16T05:57:17.210Z,52.80
2018-04-16T05:59:43.778Z,52.08
2018-04-16T06:02:10.416Z,51.97
2018-04-16T06:04:43.410Z,52.26
2018-04-16T06:07:10.027Z,51.36
2018-04-16T06:09:36.689Z,51.02
2018-04-16T06:12:03.361Z,51.80
2018-04-16T06:14:30.274Z,52.37
2018-04-16T06:16:57.038Z,52.04
2018-04-16T06:19:23.693Z,51.97
2018-04-16T06:21:50.325Z,52.36
2018-04-16T06:24:20.550Z,52.41
2018-04-16T06:26:47.211Z,53.80
2018-04-16T06:29:13.829Z,52.71
2018-04-16T06:31:40.454Z,53.93
2018-04-16T06:34:07.202Z,54.41
2018-04-16T06:36:33.814Z,54.36
2018-04-16T06:39:00.314Z,54.67
2018-04-16T06:41:27.048Z,53.53
2018-04-16T06:43:54.725Z,52.76
2018-04-16T06:46:21.494Z,53.59
2018-04-16T06:48:48.057Z,53.85
2018-04-16T06:51:14.741Z,53.04
2018-04-16T06:53:45.186Z,53.15
2018-04-16T06:56:11.900Z,52.82
2018-04-16T06:58:38.544Z,51.54
2018-04-16T07:01:05.213Z,50.11
2018-04-16T07:03:34.874Z,52.94
2018-04-16T07:06:01.478Z,52.23
2018-04-16T07:08:28.127Z,50.75
2018-04-16T07:10:54.777Z,51.48
2018-04-16T07:13:24.899Z,51.06
2018-04-16T07:15:51.748Z,52.02
2018-04-16T07:18:18.315Z,51.88
2018-04-16T07:20:45.010Z,51.47
2018-04-16T07:23:11.743Z,50.87
2018-04-16T07:25:38.426Z,51.05
2018-04-16T07:28:05.154Z,50.97
2018-04-16T07:30:31.907Z,51.92
2018-04-16T07:32:58.829Z,51.13
2018-04-16T07:35:25.550Z,52.07
2018-04-16T07:37:52.331Z,52.12
2018-04-16T07:40:19.114Z,52.80
2018-04-16T07:42:48.976Z,51.79
2018-04-16T07:45:15.630Z,51.81
2018-04-16T07:47:42.240Z,51.89
2018-04-16T07:50:08.882Z,53.08
2018-04-16T07:52:39.004Z,51.77
2018-04-16T07:55:05.673Z,51.75
2018-04-16T07:57:32.340Z,51.06
2018-04-16T07:59:59.006Z,51.47
2018-04-16T08:02:25.768Z,51.07
2018-04-16T08:04:52.365Z,50.61
2018-04-16T08:07:19.089Z,49.73
2018-04-16T08:09:45.862Z,48.27
2018-04-16T08:12:12.554Z,48.25
2018-04-16T08:14:39.230Z,48.95
2018-04-16T08:17:05.962Z,49.31
2018-04-16T08:19:32.937Z,48.89
2018-04-16T08:21:59.494Z,48.14
2018-04-16T08:24:32.023Z,48.81
2018-04-16T08:26:58.737Z,48.01
2018-04-16T08:29:25.333Z,46.74
2018-04-16T08:31:52.016Z,46.27
2018-04-16T08:34:19.885Z,47.39
2018-04-16T08:36:46.468Z,47.53
2018-04-16T08:39:13.132Z,46.59
2018-04-16T08:41:39.793Z,45.50
2018-04-16T08:44:07.737Z,44.91
2018-04-16T08:46:34.518Z,44.38
2018-04-16T08:49:01.213Z,44.24
2018-04-16T08:51:27.813Z,43.19
2018-04-16T08:53:58.225Z,42.77
2018-04-16T08:56:24.929Z,42.53
2018-04-16T08:58:51.566Z,43.55
2018-04-16T09:01:18.205Z,43.94
2018-04-16T09:03:51.293Z,42.82
2018-04-16T09:06:17.904Z,42.19
2018-04-16T09:08:44.594Z,40.29
2018-04-16T09:11:11.174Z,42.14
2018-04-16T09:13:41.657Z,41.00
2018-04-16T09:16:08.351Z,42.04
2018-04-16T09:18:34.986Z,41.87
2018-04-16T09:21:01.674Z,40.50
2018-04-16T09:23:46.145Z,40.01
2018-04-16T09:26:12.741Z,39.75
2018-04-16T09:28:39.489Z,38.63
2018-04-16T09:31:06.189Z,37.53
2018-04-16T09:33:36.797Z,37.10
2018-04-16T09:36:03.381Z,38.10
2018-04-16T09:38:30.069Z,37.89
2018-04-16T09:40:56.693Z,38.51
2018-04-16T09:43:24.586Z,36.71
2018-04-16T09:45:51.245Z,37.02
2018-04-16T09:48:17.814Z,38.56
2018-04-16T09:50:44.509Z,37.42
2018-04-16T09:53:14.802Z,35.51
2018-04-16T09:55:41.507Z,37.16
2018-04-16T09:58:08.202Z,39.08
2018-04-16T10:00:40.990Z,36.89
2018-04-16T10:03:14.772Z,37.23
2018-04-16T10:05:41.518Z,37.61
2018-04-16T10:08:08.193Z,36.63
2018-04-16T10:10:34.884Z,34.87
2018-04-16T10:13:03.102Z,36.36
2018-04-16T10:15:29.729Z,37.49
2018-04-16T10:17:56.381Z,36.47
2018-04-16T10:20:23.001Z,33.62
2018-04-16T10:22:55.897Z,33.93
2018-04-16T10:25:22.615Z,34.52
2018-04-16T10:27:49.343Z,32.82
2018-04-16T10:30:16.119Z,34.02
2018-04-16T10:32:43.902Z,35.21
2018-04-16T10:35:10.514Z,35.52
2018-04-16T10:37:37.163Z,34.93
2018-04-16T10:40:03.870Z,35.98
2018-04-16T10:42:34.047Z,36.28
2018-04-16T10:45:00.642Z,34.83
2018-04-16T10:47:27.311Z,36.16
2018-04-16T10:49:54.031Z,36.22
2018-04-16T10:52:24.234Z,36.66
2018-04-16T10:54:50.853Z,36.29
2018-04-16T10:57:17.566Z,36.19
2018-04-16T10:59:44.243Z,36.06
2018-04-16T11:02:16.439Z,35.50
2018-04-16T11:04:43.086Z,35.49
2018-04-16T11:07:09.759Z,37.09
2018-04-16T11:09:36.422Z,37.69
2018-04-16T11:12:07.042Z,36.39
2018-04-16T11:14:33.569Z,36.70
2018-04-16T11:17:00.255Z,39.43
2018-04-16T11:19:26.961Z,38.70
2018-04-16T11:21:57.186Z,37.52
2018-04-16T11:24:23.754Z,36.04
2018-04-16T11:26:50.329Z,36.72
2018-04-16T11:29:17.018Z,39.05
2018-04-16T11:31:48.316Z,37.15
2018-04-16T11:34:14.891Z,35.29
2018-04-16T11:36:41.517Z,35.18
2018-04-16T11:39:08.217Z,33.95
2018-04-16T11:41:34.853Z,34.33
2018-04-16T11:44:04.466Z,35.07
2018-04-16T11:46:31.169Z,35.92
2018-04-16T11:48:57.892Z,36.30
2018-04-16T11:51:24.582Z,35.59
2018-04-16T11:53:54.714Z,34.30
2018-04-16T11:56:21.297Z,34.85
2018-04-16T11:58:47.934Z,34.29
2018-04-16T12:01:14.730Z,34.35
2018-04-16T12:03:52.146Z,34.34
2018-04-16T12:06:18.864Z,34.71
2018-04-16T12:08:45.464Z,37.57
2018-04-16T12:11:12.054Z,38.17
2018-04-16T12:13:40.215Z,37.01
2018-04-16T12:16:06.911Z,36.85
2018-04-16T12:18:33.689Z,37.02
2018-04-16T12:21:00.381Z,38.19
2018-04-16T12:23:30.221Z,38.80
2018-04-16T12:25:56.988Z,37.80
2018-04-16T12:28:23.574Z,39.65
2018-04-16T12:30:50.333Z,38.36
2018-04-16T12:33:29.805Z,37.97
2018-04-16T12:35:56.538Z,37.90
2018-04-16T12:38:23.142Z,39.09
2018-04-16T12:40:49.731Z,38.16
2018-04-16T12:43:16.364Z,38.27
2018-04-16T12:45:43.118Z,38.09
2018-04-16T12:48:09.813Z,37.45
2018-04-16T12:50:36.440Z,40.03
2018-04-16T12:53:04.154Z,38.74
2018-04-16T12:55:30.788Z,41.08
2018-04-16T12:57:57.427Z,39.58
2018-04-16T13:00:24.002Z,40.02
2018-04-16T13:02:51.921Z,38.25
2018-04-16T13:05:18.590Z,38.56
2018-04-16T13:07:45.293Z,39.84
2018-04-16T13:10:11.978Z,40.16
2018-04-16T13:12:38.932Z,40.89
2018-04-16T13:15:05.596Z,40.11
2018-04-16T13:17:32.164Z,41.48
2018-04-16T13:19:58.838Z,40.14
2018-04-16T13:22:28.870Z,41.56
2018-04-16T13:24:55.632Z,41.91
2018-04-16T13:27:22.385Z,40.58
2018-04-16T13:29:49.042Z,42.13
2018-04-16T13:32:18.761Z,43.71
2018-04-16T13:34:45.336Z,44.11
2018-04-16T13:37:11.849Z,45.10
2018-04-16T13:39:38.476Z,41.09
2018-04-16T13:42:09.033Z,40.49
2018-04-16T13:44:35.656Z,41.58
2018-04-16T13:47:02.436Z,41.39
2018-04-16T13:49:29.153Z,43.59
2018-04-16T13:52:15.685Z,41.68
2018-04-16T13:54:42.438Z,42.52
2018-04-16T13:57:08.966Z,42.65
2018-04-16T13:59:35.667Z,40.86
2018-04-16T14:02:05.966Z,41.33
2018-04-16T14:04:32.618Z,42.14
2018-04-16T14:06:59.301Z,42.94
2018-04-16T14:09:26.123Z,40.09
2018-04-16T14:11:58.913Z,40.40
2018-04-16T14:14:25.574Z,39.09
2018-04-16T14:16:52.306Z,40.01
2018-04-16T14:19:18.891Z,40.24
2018-04-16T14:21:51.876Z,38.81
2018-04-16T14:24:18.538Z,39.16
2018-04-16T14:26:45.193Z,41.39
2018-04-16T14:29:11.883Z,41.35
2018-04-16T14:31:49.114Z,39.40
2018-04-16T14:34:15.775Z,40.26
2018-04-16T14:36:42.518Z,42.22
2018-04-16T14:39:09.171Z,42.61
2018-04-16T14:41:39.358Z,42.64
2018-04-16T14:44:06.000Z,43.47
2018-04-16T14:46:32.685Z,41.17
2018-04-16T14:48:59.441Z,39.57
2018-04-16T14:51:33.082Z,39.18
2018-04-16T14:53:59.763Z,41.74
2018-04-16T14:56:26.527Z,40.30
2018-04-16T14:58:53.287Z,41.21
2018-04-16T15:01:19.970Z,40.35
2018-04-16T15:03:46.586Z,42.03
2018-04-16T15:06:13.231Z,42.88
2018-04-16T15:08:39.938Z,42.94
2018-04-16T15:11:06.686Z,43.14
2018-04-16T15:13:33.309Z,40.49
2018-04-16T15:16:00.079Z,41.27
2018-04-16T15:18:26.850Z,42.09
2018-04-16T15:20:53.345Z,43.15
2018-04-16T15:23:23.645Z,42.91
2018-04-16T15:25:50.346Z,44.68
2018-04-16T15:28:17.065Z,45.36
2018-04-16T15:30:43.802Z,44.25
2018-04-16T15:33:14.287Z,45.99
2018-04-16T15:35:41.077Z,47.17
2018-04-16T15:38:07.833Z,47.48
2018-04-16T15:40:34.490Z,46.55
2018-04-16T15:43:01.159Z,48.51
2018-04-16T15:45:27.758Z,47.92
2018-04-16T15:47:54.527Z,48.56
2018-04-16T15:50:21.203Z,49.64
2018-04-16T15:52:48.718Z,48.57
2018-04-16T15:55:15.397Z,48.13
2018-04-16T15:57:42.035Z,51.89
2018-04-16T16:00:08.695Z,53.23
2018-04-16T16:02:42.710Z,52.46
2018-04-16T16:05:09.315Z,50.46
2018-04-16T16:07:35.859Z,49.40
2018-04-16T16:10:02.653Z,49.01
2018-04-16T16:12:33.062Z,49.71
2018-04-16T16:14:59.512Z,49.47
2018-04-16T16:17:26.230Z,49.07
2018-04-16T16:19:53.005Z,49.65
2018-04-16T16:22:23.196Z,50.05
2018-04-16T16:24:49.833Z,49.98
2018-04-16T16:27:16.520Z,50.27
2018-04-16T16:29:43.154Z,51.25
2018-04-16T16:32:13.123Z,50.65
2018-04-16T16:34:39.610Z,51.39
2018-04-16T16:37:06.282Z,51.55
2018-04-16T16:39:32.751Z,52.88
2018-04-16T16:42:06.114Z,53.79
2018-04-16T16:44:32.814Z,53.80
2018-04-16T16:46:59.342Z,55.61
2018-04-16T16:49:25.972Z,56.34
2018-04-16T16:51:56.486Z,57.42
2018-04-16T16:54:23.165Z,57.92
2018-04-16T16:56:49.871Z,58.66
2018-04-16T16:59:16.558Z,58.16
2018-04-16T17:02:02.928Z,59.63
2018-04-16T17:04:29.454Z,58.35
2018-04-16T17:06:56.182Z,59.25
2018-04-16T17:09:22.830Z,59.03
2018-04-16T17:11:53.810Z,58.97
2018-04-16T17:14:20.597Z,59.15
2018-04-16T17:16:47.111Z,59.35
2018-04-16T17:19:14.356Z,60.58
2018-04-16T17:21:48.386Z,59.48
2018-04-16T17:24:15.003Z,59.04
2018-04-16T17:26:41.665Z,59.98
2018-04-16T17:29:08.430Z,59.60
2018-04-16T17:31:38.558Z,60.67
2018-04-16T17:34:05.165Z,61.23
2018-04-16T17:36:31.893Z,61.84
2018-04-16T17:38:58.369Z,61.18
2018-04-16T17:41:24.734Z,61.91
2018-04-16T17:43:51.295Z,62.76
2018-04-16T17:46:17.990Z,61.27
2018-04-16T17:48:44.546Z,62.19
2018-04-16T17:51:21.330Z,62.60
2018-04-16T17:53:48.073Z,62.16
2018-04-16T17:56:14.691Z,62.88
2018-04-16T17:58:41.218Z,63.84
2018-04-16T18:01:21.589Z,64.07
2018-04-16T18:03:48.319Z,63.49
2018-04-16T18:06:15.048Z,63.51
2018-04-16T18:08:42.219Z,63.20
2018-04-16T18:11:15.570Z,63.29
2018-04-16T18:13:42.236Z,63.59
2018-04-16T18:16:09.023Z,64.08
2018-04-16T18:18:35.657Z,64.56
2018-04-16T18:21:05.736Z,64.13
2018-04-16T18:23:32.842Z,65.65
2018-04-16T18:25:59.391Z,66.70
2018-04-16T18:28:26.063Z,65.14
2018-04-16T18:30:58.791Z,65.36
2018-04-16T18:33:25.407Z,65.35
2018-04-16T18:35:52.781Z,66.23
2018-04-16T18:38:20.336Z,67.21
2018-04-16T18:40:48.026Z,67.56
2018-04-16T18:43:14.748Z,68.00
2018-04-16T18:45:44.322Z,67.45
2018-04-16T18:48:11.452Z,67.12
2018-04-16T18:50:38.314Z,65.99
2018-04-16T18:53:04.837Z,66.01
2018-04-16T18:55:31.759Z,66.29
2018-04-16T18:57:58.537Z,65.44
2018-04-16T19:00:25.326Z,65.60
2018-04-16T19:02:52.143Z,65.41
2018-04-16T19:05:18.879Z,64.93
2018-04-16T19:07:45.423Z,64.61
2018-04-16T19:10:12.496Z,65.52
2018-04-16T19:12:39.417Z,64.87
2018-04-16T19:15:06.030Z,63.78
2018-04-16T19:17:32.713Z,63.38
2018-04-16T19:19:59.342Z,64.62
2018-04-16T19:22:26.197Z,65.50
2018-04-16T19:24:52.886Z,64.71
2018-04-16T19:27:25.380Z,65.48
2018-04-16T19:29:51.930Z,64.62
2018-04-16T19:32:18.648Z,65.91
2018-04-16T19:34:51.274Z,65.81
2018-04-16T19:37:17.962Z,64.95
2018-04-16T19:39:45.525Z,64.83
2018-04-16T19:42:28.374Z,64.96
2018-04-16T19:44:55.077Z,65.80
2018-04-16T19:47:21.674Z,66.34
2018-04-16T19:49:54.971Z,65.85
2018-04-16T19:52:24.703Z,65.33
2018-04-16T19:54:51.344Z,67.53
2018-04-16T19:57:23.930Z,67.42
2018-04-16T19:59:50.587Z,67.78
2018-04-16T20:02:26.844Z,67.11
2018-04-16T20:04:54.361Z,66.59
2018-04-16T20:07:20.918Z,67.83
2018-04-16T20:09:47.557Z,68.00
2018-04-16T20:12:18.211Z,67.52
2018-04-16T20:14:45.068Z,66.10
2018-04-16T20:17:11.642Z,65.47
2018-04-16T20:19:38.362Z,66.62
2018-04-16T20:22:08.261Z,66.74
2018-04-16T20:24:34.926Z,66.75
2018-04-16T20:27:01.562Z,68.06
2018-04-16T20:29:28.686Z,68.45
2018-04-16T20:32:02.109Z,66.75
2018-04-16T20:34:28.726Z,68.40
2018-04-16T20:36:55.264Z,67.82
2018-04-16T20:39:21.784Z,67.19
2018-04-16T20:41:52.683Z,67.23
2018-04-16T20:44:19.265Z,68.38
2018-04-16T20:46:45.928Z,68.32
2018-04-16T20:49:12.579Z,69.40
2018-04-16T20:51:42.405Z,70.25
2018-04-16T20:54:09.050Z,70.42
2018-04-16T20:56:35.654Z,70.65
2018-04-16T20:59:02.234Z,70.42
2018-04-16T21:01:33.628Z,69.48
2018-04-16T21:04:00.176Z,70.09
2018-04-16T21:06:26.756Z,68.88
2018-04-16T21:08:53.336Z,69.66
2018-04-16T21:11:20.102Z,68.96
2018-04-16T21:13:46.686Z,68.60
2018-04-16T21:16:13.204Z,69.28
2018-04-16T21:18:39.790Z,71.10
2018-04-16T21:21:07.391Z,71.70
2018-04-16T21:23:33.950Z,71.53
2018-04-16T21:26:00.521Z,70.43
2018-04-16T21:28:27.123Z,70.31
2018-04-16T21:30:54.845Z,70.29
2018-04-16T21:33:21.461Z,70.08
2018-04-16T21:35:48.009Z,69.26
2018-04-16T21:38:14.613Z,69.21
2018-04-16T21:40:42.390Z,69.59
2018-04-16T21:43:09.136Z,69.59
2018-04-16T21:45:35.824Z,68.84
2018-04-16T21:48:02.314Z,69.97
2018-04-16T21:50:28.965Z,69.93
2018-04-16T21:52:55.638Z,69.10
2018-04-16T21:55:22.320Z,68.74
2018-04-16T21:57:48.888Z,69.92
2018-04-16T22:00:19.546Z,71.57
2018-04-16T22:02:46.074Z,70.35
2018-04-16T22:05:12.684Z,69.83
2018-04-16T22:07:39.382Z,69.85
2018-04-16T22:10:05.874Z,70.19
2018-04-16T22:12:32.310Z,69.36
2018-04-16T22:14:58.877Z,69.58
2018-04-16T22:17:25.542Z,69.66
2018-04-16T22:19:52.222Z,69.57
2018-04-16T22:22:19.001Z,69.90
2018-04-16T22:24:45.584Z,70.86
2018-04-16T22:27:12.300Z,70.57
2018-04-16T22:29:38.993Z,71.10
2018-04-16T22:32:09.312Z,70.69
2018-04-16T22:34:36.001Z,71.04
2018-04-16T22:37:02.490Z,71.60
2018-04-16T22:39:28.985Z,72.17
2018-04-16T22:42:02.104Z,72.02
2018-04-16T22:44:28.745Z,71.39
2018-04-16T22:46:55.371Z,72.97
2018-04-16T22:49:22.053Z,72.24
2018-04-16T22:51:52.384Z,72.02
2018-04-16T22:54:18.972Z,72.46
2018-04-16T22:56:45.576Z,72.93
2018-04-16T22:59:12.494Z,72.71
2018-04-16T23:01:52.062Z,73.07
2018-04-16T23:04:18.669Z,72.84
2018-04-16T23:06:45.208Z,72.74
2018-04-16T23:09:11.911Z,72.65
2018-04-16T23:11:38.538Z,72.22
2018-04-16T23:14:05.258Z,72.61
2018-04-16T23:16:31.883Z,72.71
2018-04-16T23:18:58.905Z,72.42
2018-04-16T23:21:26.647Z,72.13
2018-04-16T23:23:53.337Z,73.56
2018-04-16T23:26:20.026Z,73.92
2018-04-16T23:28:46.760Z,72.90
2018-04-16T23:31:14.388Z,72.53
2018-04-16T23:33:41.438Z,72.14
2018-04-16T23:36:08.175Z,72.45
2018-04-16T23:38:34.890Z,73.94
2018-04-16T23:41:05.189Z,73.79
2018-04-16T23:43:31.670Z,72.79
2018-04-16T23:45:58.342Z,73.42
2018-04-16T23:48:24.987Z,73.99
2018-04-16T23:50:55.375Z,74.19
2018-04-16T23:53:21.941Z,74.58
2018-04-16T23:55:48.509Z,74.93
2018-04-16T23:58:15.188Z,75.36
